Time;durP1;ratioP1;P1;durP2;ratioP2;P2;SDS_P1;SDS_P2;PMS_P1;PMS_P2;Temp;Humidity;BMP_temperature;BMP_pressure;BME280_temperature;BME280_humidity;BME280_pressure;Samples;Min_cycle;Max_cycle;Signal;HPM_P1;HPM_P2
2023/01/17 00:01:05;;;;;;;10.98;8.60;;;3.60;99.90;;;;;;2045523;29;20031;-66
2023/01/17 00:02:06;;;;;;;11.65;8.50;;;3.50;99.90;;;;;;2045250;28;20067;-67
2023/01/17 00:03:07;;;;;;;11.80;9.20;;;3.50;99.90;;;;;;2036904;29;20043;-66
2023/01/17 00:10:51;;;;;;;14.38;9.40;;;3.50;99.90;;;;;;2046341;28;20042;-66
2023/01/17 00:11:51;;;;;;;12.50;9.60;;;3.50;99.90;;;;;;2045617;29;20074;-69
2023/01/17 00:12:58;;;;;;;11.77;9.40;;;3.50;99.90;;;;;;2045622;29;20074;-67
2023/01/17 00:13:59;;;;;;;13.80;9.73;;;3.50;99.90;;;;;;2045386;29;20093;-67
2023/01/17 00:15:01;;;;;;;14.10;10.10;;;3.50;99.90;;;;;;2035438;29;20035;-67
2023/01/17 00:16:01;;;;;;;11.93;9.63;;;3.50;99.90;;;;;;2036772;29;20081;-66
2023/01/17 00:17:02;;;;;;;11.93;9.52;;;3.50;99.90;;;;;;2045203;29;20447;-66
2023/01/17 00:18:02;;;;;;;11.70;9.25;;;3.50;99.90;;;;;;2045373;29;20035;-66
2023/01/17 00:26:03;;;;;;;13.00;9.95;;;3.50;99.90;;;;;;2045560;28;20545;-66
2023/01/17 01:33:59;;;;;;;3.20;2.30;;;4.70;99.90;;;;;;2042751;29;20237;-67
2023/01/17 01:34:59;;;;;;;3.47;2.20;;;4.90;99.90;;;;;;2050790;28;20255;-66
2023/01/17 01:36:00;;;;;;;2.53;2.10;;;4.90;99.90;;;;;;2047048;28;20035;-65
2023/01/17 01:37:00;;;;;;;2.90;2.22;;;5.00;99.90;;;;;;2046498;28;20310;-67
2023/01/17 01:38:02;;;;;;;2.20;1.98;;;5.10;99.90;;;;;;2045941;28;20677;-66
2023/01/17 01:39:02;;;;;;;2.80;1.83;;;5.10;99.90;;;;;;2046590;29;20393;-66
2023/01/17 01:40:04;;;;;;;2.33;1.90;;;5.20;99.90;;;;;;2044969;29;20034;-65
2023/01/17 01:41:04;;;;;;;3.45;1.95;;;5.30;99.90;;;;;;2046592;29;20039;-66
2023/01/17 01:42:14;;;;;;;2.10;1.90;;;5.30;99.90;;;;;;2046641;29;20533;-66
2023/01/17 01:43:20;;;;;;;2.15;1.92;;;5.30;99.90;;;;;;2039528;29;20223;-66
2023/01/17 01:44:41;;;;;;;2.50;2.05;;;5.40;99.90;;;;;;2037504;29;20031;-67
2023/01/17 01:45:47;;;;;;;1.88;1.77;;;5.40;99.90;;;;;;2037885;29;20522;-66
2023/01/17 01:46:47;;;;;;;2.28;2.00;;;5.40;99.90;;;;;;2038131;29;20534;-66
2023/01/17 01:47:50;;;;;;;2.28;1.77;;;5.40;99.90;;;;;;2045917;29;20043;-66
2023/01/17 01:49:00;;;;;;;1.90;1.70;;;5.40;99.90;;;;;;2037662;29;20174;-66
2023/01/17 01:50:05;;;;;;;2.45;1.80;;;5.40;99.90;;;;;;2042363;28;20035;-66
2023/01/17 01:51:10;;;;;;;2.42;1.70;;;5.50;99.90;;;;;;2046203;29;20035;-66
2023/01/17 01:52:12;;;;;;;2.33;1.80;;;5.50;99.90;;;;;;2037608;29;20471;-66
2023/01/17 01:53:13;;;;;;;2.67;1.67;;;5.50;99.90;;;;;;2037945;29;20116;-66
2023/01/17 01:54:19;;;;;;;2.40;1.90;;;5.40;99.90;;;;;;2044844;29;20035;-66
2023/01/17 01:55:24;;;;;;;2.72;1.75;;;5.50;99.90;;;;;;2046622;29;20089;-66
2023/01/17 01:56:26;;;;;;;2.28;1.77;;;5.50;99.90;;;;;;2045307;28;20880;-66
2023/01/17 01:57:31;;;;;;;2.33;1.80;;;5.40;99.90;;;;;;2045758;29;20039;-66
2023/01/17 01:58:33;;;;;;;1.70;1.60;;;5.40;99.90;;;;;;2045895;29;20051;-66
2023/01/17 01:59:39;;;;;;;1.73;1.63;;;5.40;99.90;;;;;;2044914;29;20036;-66
2023/01/17 02:00:40;;;;;;;1.90;1.70;;;5.50;99.90;;;;;;2036023;29;20510;-66
2023/01/17 02:01:41;;;;;;;2.00;1.70;;;5.50;99.90;;;;;;2030466;29;20359;-66
2023/01/17 02:02:43;;;;;;;2.88;2.00;;;5.50;99.90;;;;;;2044939;29;20058;-67
2023/01/17 02:03:46;;;;;;;2.35;1.50;;;5.50;99.90;;;;;;2045675;29;20263;-66
2023/01/17 02:04:47;;;;;;;1.70;1.58;;;5.50;99.90;;;;;;2044503;28;20027;-67
2023/01/17 02:05:47;;;;;;;2.28;1.90;;;5.50;99.90;;;;;;2046490;29;20098;-68
2023/01/17 02:06:54;;;;;;;3.97;2.50;;;5.50;99.90;;;;;;2046311;29;20139;-66
2023/01/17 02:08:04;;;;;;;2.80;1.70;;;5.50;99.90;;;;;;2038495;29;20506;-66
2023/01/17 02:09:08;;;;;;;2.78;2.00;;;5.50;99.90;;;;;;2046076;29;20031;-67
2023/01/17 02:10:09;;;;;;;1.77;1.60;;;5.50;99.90;;;;;;2044761;28;20063;-66
2023/01/17 02:11:10;;;;;;;2.40;1.80;;;5.50;99.90;;;;;;2046290;29;20038;-66
2023/01/17 02:12:11;;;;;;;3.28;1.70;;;5.50;99.90;;;;;;2037578;29;20381;-66
2023/01/17 02:13:15;;;;;;;3.03;1.85;;;5.50;99.90;;;;;;2037671;29;20139;-66
2023/01/17 02:14:17;;;;;;;2.22;1.98;;;5.50;99.90;;;;;;2043900;29;20469;-66
2023/01/17 02:15:19;;;;;;;2.72;1.90;;;5.50;99.90;;;;;;2046573;29;20614;-67
2023/01/17 02:16:57;;;;;;;1.60;1.50;;;5.50;99.90;;;;;;2037689;29;20171;-67
2023/01/17 02:18:16;;;;;;;2.33;1.52;;;5.50;99.90;;;;;;2042944;29;20047;-65
2023/01/17 02:19:38;;;;;;;1.70;1.60;;;5.50;99.90;;;;;;2045096;29;20032;-66
2023/01/17 02:21:02;;;;;;;2.25;1.95;;;5.50;99.90;;;;;;2046432;29;20402;-66
2023/01/17 02:22:37;;;;;;;2.40;1.90;;;5.50;99.90;;;;;;2044828;29;20031;-68
2023/01/17 02:23:49;;;;;;;1.90;1.40;;;5.50;99.90;;;;;;2046008;29;20027;-67
2023/01/17 02:25:20;;;;;;;1.90;1.50;;;5.50;99.90;;;;;;2043575;28;20094;-67
2023/01/17 02:26:49;;;;;;;1.70;1.50;;;5.50;99.90;;;;;;2046174;29;20550;-66
2023/01/17 02:28:02;;;;;;;1.73;1.63;;;5.60;99.90;;;;;;2045605;29;20112;-67
2023/01/17 02:29:35;;;;;;;1.52;1.42;;;5.60;99.90;;;;;;2037814;29;20037;-67
2023/01/17 02:30:44;;;;;;;1.65;1.30;;;5.60;99.90;;;;;;2041981;29;20047;-67
2023/01/17 02:31:52;;;;;;;1.48;1.20;;;5.60;99.90;;;;;;2038385;29;20912;-67
2023/01/17 02:33:40;;;;;;;1.30;1.20;;;5.60;99.90;;;;;;2045868;29;20032;-67
2023/01/17 02:34:50;;;;;;;1.45;1.30;;;5.60;99.90;;;;;;2027769;29;20032;-67
2023/01/17 02:36:03;;;;;;;1.52;1.40;;;5.60;99.90;;;;;;2029195;29;20092;-67
2023/01/17 02:37:13;;;;;;;1.50;1.40;;;5.60;99.90;;;;;;2030211;28;20051;-67
2023/01/17 02:38:38;;;;;;;1.30;1.20;;;5.60;99.90;;;;;;2038220;29;20507;-67
2023/01/17 02:39:52;;;;;;;1.98;1.50;;;5.60;99.90;;;;;;2033995;29;20039;-67
2023/01/17 02:41:01;;;;;;;1.42;1.30;;;5.60;99.90;;;;;;2046207;29;20023;-67
2023/01/17 02:42:11;;;;;;;1.38;1.27;;;5.60;99.90;;;;;;2044304;28;20035;-67
2023/01/17 02:43:14;;;;;;;1.30;1.20;;;5.60;99.90;;;;;;2043825;28;20550;-65
2023/01/17 02:44:17;;;;;;;1.70;1.30;;;5.60;99.90;;;;;;2045633;29;20433;-66
2023/01/17 02:45:19;;;;;;;1.98;1.50;;;5.60;99.90;;;;;;2043260;29;20716;-66
2023/01/17 02:46:20;;;;;;;1.33;1.17;;;5.60;99.90;;;;;;2035929;29;20686;-67
2023/01/17 02:47:24;;;;;;;1.40;1.30;;;5.60;99.90;;;;;;2037867;29;20122;-66
2023/01/17 02:48:29;;;;;;;1.13;1.10;;;5.60;99.90;;;;;;2046054;29;20582;-66
2023/01/17 02:49:31;;;;;;;1.38;1.23;;;5.60;99.90;;;;;;2045823;28;20027;-67
2023/01/17 02:51:06;;;;;;;1.20;1.08;;;5.60;99.90;;;;;;2045582;29;20054;-66
2023/01/17 02:52:40;;;;;;;1.10;1.05;;;5.60;99.90;;;;;;2043852;28;20027;-66
2023/01/17 02:54:18;;;;;;;1.20;1.10;;;5.60;99.90;;;;;;2038363;29;20042;-77
2023/01/17 02:56:04;;;;;;;1.20;1.10;;;5.70;99.90;;;;;;2045218;29;20047;-76
2023/01/17 02:57:33;;;;;;;1.20;1.00;;;5.60;99.90;;;;;;2013255;29;20075;-77
2023/01/17 02:58:56;;;;;;;1.90;1.10;;;5.70;99.90;;;;;;2046088;29;20031;-77
2023/01/17 03:00:17;;;;;;;1.10;1.00;;;5.70;99.90;;;;;;2038151;29;20460;-78
2023/01/17 03:01:33;;;;;;;1.00;1.00;;;5.70;99.90;;;;;;2043737;28;20062;-76
2023/01/17 03:02:56;;;;;;;1.02;1.00;;;5.70;99.90;;;;;;2046255;29;20035;-76
2023/01/17 03:04:02;;;;;;;1.00;1.00;;;5.70;99.90;;;;;;2041944;29;20050;-76
2023/01/17 03:05:09;;;;;;;1.20;1.10;;;5.70;99.90;;;;;;2037577;29;20107;-77
2023/01/17 03:06:24;;;;;;;1.40;1.30;;;5.70;99.90;;;;;;2038745;29;20050;-77
2023/01/17 03:07:26;;;;;;;1.92;1.52;;;5.70;99.90;;;;;;2037588;29;20127;-76
2023/01/17 03:08:27;;;;;;;2.75;1.98;;;5.70;99.90;;;;;;2037734;29;20054;-76
2023/01/17 03:09:30;;;;;;;1.10;1.00;;;5.70;99.90;;;;;;2045892;29;20039;-77
2023/01/17 03:10:32;;;;;;;2.03;1.05;;;5.70;99.90;;;;;;2046116;29;20054;-76
2023/01/17 03:11:33;;;;;;;1.08;0.98;;;5.70;99.90;;;;;;2044206;29;20414;-77
2023/01/17 03:12:36;;;;;;;1.77;0.90;;;5.70;99.90;;;;;;2045813;29;20038;-76
2023/01/17 03:13:37;;;;;;;0.93;0.90;;;5.70;99.90;;;;;;2046209;29;20035;-76
2023/01/17 03:14:37;;;;;;;1.25;0.80;;;5.70;99.90;;;;;;2045998;29;20303;-77
2023/01/17 03:15:39;;;;;;;0.70;0.70;;;5.70;99.90;;;;;;2045961;29;20046;-76
2023/01/17 03:16:40;;;;;;;0.70;0.70;;;5.80;99.90;;;;;;2048438;28;20089;-77
2023/01/17 03:17:46;;;;;;;0.80;0.80;;;5.80;99.90;;;;;;2041428;29;20083;-77
2023/01/17 03:18:48;;;;;;;0.60;0.60;;;5.80;99.90;;;;;;2032620;29;20036;-77
2023/01/17 03:19:48;;;;;;;6.70;0.80;;;5.80;99.90;;;;;;2044729;29;20513;-77
2023/01/17 03:20:49;;;;;;;0.68;0.68;;;5.90;99.90;;;;;;2045126;29;20070;-77
2023/01/17 03:21:49;;;;;;;0.70;0.70;;;5.90;99.90;;;;;;2043978;29;20031;-77
2023/01/17 03:22:50;;;;;;;1.50;0.63;;;5.90;99.90;;;;;;2045883;29;20027;-78
2023/01/17 03:23:50;;;;;;;0.70;0.68;;;5.90;99.90;;;;;;2045705;29;20032;-79
2023/01/17 03:24:51;;;;;;;0.70;0.70;;;6.00;99.90;;;;;;2045728;29;20035;-78
2023/01/17 03:25:51;;;;;;;0.70;0.70;;;6.00;99.90;;;;;;2046106;29;20043;-77
2023/01/17 03:26:53;;;;;;;0.80;0.80;;;6.00;99.90;;;;;;2044093;29;20039;-79
2023/01/17 03:27:53;;;;;;;1.65;0.70;;;6.00;99.90;;;;;;2046000;29;20035;-77
2023/01/17 03:28:54;;;;;;;0.80;0.80;;;6.00;99.90;;;;;;2045391;29;20141;-77
2023/01/17 03:29:54;;;;;;;0.68;0.68;;;6.00;99.90;;;;;;2045433;29;20051;-78
2023/01/17 03:30:55;;;;;;;1.63;0.80;;;6.00;99.90;;;;;;2045757;29;20031;-78
2023/01/17 03:31:55;;;;;;;0.80;0.80;;;6.00;99.90;;;;;;2044204;28;20023;-76
2023/01/17 03:32:56;;;;;;;0.70;0.70;;;6.00;99.90;;;;;;2045741;29;20498;-77
2023/01/17 03:33:56;;;;;;;0.95;0.77;;;6.00;99.90;;;;;;2045729;28;20035;-77
2023/01/17 03:34:57;;;;;;;0.70;0.70;;;6.00;99.90;;;;;;2037088;29;20035;-76
2023/01/17 03:35:58;;;;;;;0.88;0.70;;;6.00;99.90;;;;;;2037243;29;20032;-76
2023/01/17 03:36:58;;;;;;;1.70;0.70;;;6.00;99.90;;;;;;2043530;29;20035;-76
2023/01/17 03:37:59;;;;;;;0.70;0.70;;;6.00;99.90;;;;;;2045922;29;20553;-76
2023/01/17 03:38:59;;;;;;;1.58;0.80;;;6.00;99.90;;;;;;2045652;29;20230;-78
2023/01/17 03:40:00;;;;;;;1.00;0.90;;;6.00;99.90;;;;;;2045457;29;20086;-77
2023/01/17 03:41:00;;;;;;;0.93;0.80;;;6.00;99.90;;;;;;2045588;29;20646;-76
2023/01/17 03:42:01;;;;;;;1.38;0.75;;;6.00;99.90;;;;;;2043784;29;20031;-76
2023/01/17 03:43:01;;;;;;;1.95;0.80;;;6.00;99.90;;;;;;2045743;29;20058;-75
2023/01/17 03:44:02;;;;;;;2.15;0.70;;;6.00;99.90;;;;;;2036975;29;20032;-76
2023/01/17 03:45:03;;;;;;;1.27;0.90;;;6.00;99.90;;;;;;2033000;29;20063;-77
2023/01/17 03:46:06;;;;;;;1.00;0.90;;;6.00;99.90;;;;;;2045725;29;20087;-77
2023/01/17 03:47:10;;;;;;;1.35;0.80;;;6.00;99.90;;;;;;2043764;29;20513;-78
2023/01/17 03:48:11;;;;;;;1.40;1.00;;;6.00;99.90;;;;;;2045953;29;20031;-75
2023/01/17 03:49:12;;;;;;;0.90;0.90;;;6.00;99.90;;;;;;2045786;29;20502;-77
2023/01/17 03:50:12;;;;;;;0.80;0.80;;;6.00;99.90;;;;;;2045962;28;20045;-78
2023/01/17 03:51:13;;;;;;;1.08;0.88;;;5.90;99.90;;;;;;2036083;29;20366;-77
2023/01/17 03:52:14;;;;;;;1.05;0.90;;;6.00;99.90;;;;;;2029296;29;20032;-78
2023/01/17 03:53:14;;;;;;;2.83;1.00;;;6.00;99.90;;;;;;2036342;29;20451;-78
2023/01/17 03:54:15;;;;;;;1.63;0.80;;;5.90;99.90;;;;;;2045553;29;20281;-77
2023/01/17 03:55:15;;;;;;;0.90;0.90;;;5.90;99.90;;;;;;2045900;28;20043;-78
2023/01/17 03:56:16;;;;;;;0.90;0.90;;;5.90;99.90;;;;;;2044436;29;20031;-78
2023/01/17 03:57:17;;;;;;;0.85;0.85;;;5.90;99.90;;;;;;2046069;29;20186;-77
2023/01/17 03:58:17;;;;;;;1.00;1.00;;;5.90;99.90;;;;;;2045845;29;20031;-77
2023/01/17 03:59:18;;;;;;;1.40;0.90;;;5.90;99.90;;;;;;2046324;29;20187;-77
2023/01/17 04:00:19;;;;;;;0.90;0.90;;;5.90;99.90;;;;;;2045639;29;20035;-78
2023/01/17 04:01:20;;;;;;;0.90;0.90;;;5.90;99.90;;;;;;2044383;28;20070;-77
2023/01/17 04:02:20;;;;;;;1.00;1.00;;;5.90;99.90;;;;;;2045790;28;20030;-79
2023/01/17 04:03:21;;;;;;;1.58;1.00;;;5.80;99.90;;;;;;2045637;29;20031;-77
2023/01/17 04:04:21;;;;;;;0.95;0.95;;;5.80;99.90;;;;;;2045719;29;20073;-76
2023/01/17 04:05:22;;;;;;;1.40;1.10;;;5.80;99.90;;;;;;2044800;29;20031;-77
2023/01/17 04:06:22;;;;;;;1.00;1.00;;;5.90;99.90;;;;;;2043704;29;20046;-76
2023/01/17 04:07:23;;;;;;;1.20;1.10;;;5.80;99.90;;;;;;2053634;28;20035;-77
2023/01/17 04:08:24;;;;;;;1.13;1.10;;;5.80;99.90;;;;;;2045934;28;20099;-78
2023/01/17 04:09:24;;;;;;;1.75;1.10;;;5.80;99.90;;;;;;2045750;29;20035;-78
2023/01/17 04:10:25;;;;;;;1.05;1.00;;;5.80;99.90;;;;;;2045600;29;20039;-77
2023/01/17 04:11:25;;;;;;;1.10;1.00;;;5.80;99.90;;;;;;2043884;29;20482;-78
2023/01/17 04:12:26;;;;;;;1.60;1.00;;;5.80;99.90;;;;;;2045777;29;20063;-76
2023/01/17 04:13:26;;;;;;;1.10;1.00;;;5.80;99.90;;;;;;2043764;29;20031;-77
2023/01/17 04:14:27;;;;;;;1.00;1.00;;;5.80;99.90;;;;;;2045945;29;20063;-77
2023/01/17 04:15:28;;;;;;;1.45;1.08;;;5.80;99.90;;;;;;2045875;29;20055;-78
2023/01/17 04:16:30;;;;;;;2.25;1.20;;;5.80;99.90;;;;;;2046009;29;20028;-77
2023/01/17 04:17:31;;;;;;;2.03;1.30;;;5.80;99.90;;;;;;2046037;29;20721;-78
2023/01/17 04:18:31;;;;;;;1.55;1.20;;;5.80;99.90;;;;;;2044780;29;20038;-77
2023/01/17 04:19:34;;;;;;;2.60;1.20;;;5.80;99.90;;;;;;2045840;29;20035;-77
2023/01/17 04:20:37;;;;;;;1.40;1.30;;;5.80;99.90;;;;;;2045906;29;20103;-77
2023/01/17 04:21:38;;;;;;;2.58;2.17;;;5.80;99.90;;;;;;2046143;29;20049;-77
2023/01/17 04:22:38;;;;;;;2.15;1.23;;;5.80;99.90;;;;;;2046105;29;20086;-78
2023/01/17 04:23:39;;;;;;;2.60;1.20;;;5.80;99.90;;;;;;2044896;28;20094;-78
2023/01/17 04:24:39;;;;;;;1.85;1.20;;;5.80;99.90;;;;;;2045861;29;20102;-77
2023/01/17 04:25:40;;;;;;;1.45;1.35;;;5.80;99.90;;;;;;2045778;29;20110;-77
2023/01/17 04:26:40;;;;;;;1.50;1.20;;;5.80;99.90;;;;;;2046058;29;20669;-77
2023/01/17 04:27:41;;;;;;;1.88;1.40;;;5.80;99.90;;;;;;2046373;29;20055;-77
2023/01/17 04:28:41;;;;;;;2.25;1.30;;;5.80;99.90;;;;;;2036367;29;20036;-68
2023/01/17 04:29:42;;;;;;;1.33;1.20;;;5.80;99.90;;;;;;2037821;29;20028;-71
2023/01/17 04:30:42;;;;;;;1.40;1.30;;;5.80;99.90;;;;;;2045817;29;20035;-78
2023/01/17 04:31:43;;;;;;;2.45;1.45;;;5.80;99.90;;;;;;2046285;29;20060;-68
2023/01/17 04:32:43;;;;;;;1.38;1.27;;;5.80;99.90;;;;;;2045978;29;20032;-73
2023/01/17 04:33:44;;;;;;;1.67;1.30;;;5.70;99.90;;;;;;2044550;29;20483;-73
2023/01/17 04:34:44;;;;;;;1.42;1.30;;;5.70;99.90;;;;;;2046113;29;20130;-74
2023/01/17 04:35:45;;;;;;;2.55;1.35;;;5.70;99.90;;;;;;2037360;29;20597;-73
2023/01/17 04:36:46;;;;;;;1.60;1.45;;;5.70;99.90;;;;;;2037389;29;20120;-73
2023/01/17 04:37:46;;;;;;;2.45;1.33;;;5.70;99.90;;;;;;2037548;29;20108;-73
2023/01/17 04:38:47;;;;;;;1.50;1.27;;;5.70;99.90;;;;;;2042982;28;20023;-72
2023/01/17 04:39:47;;;;;;;2.78;1.42;;;5.70;99.90;;;;;;2045433;29;20039;-72
2023/01/17 04:40:48;;;;;;;1.40;1.30;;;5.70;99.90;;;;;;2029656;29;20032;-73
2023/01/17 04:41:49;;;;;;;1.40;1.30;;;5.70;99.90;;;;;;2036716;29;20024;-72
2023/01/17 04:42:50;;;;;;;2.10;1.40;;;5.70;99.90;;;;;;2045693;29;20494;-72
2023/01/17 04:43:50;;;;;;;1.85;1.40;;;5.70;99.90;;;;;;2040816;29;20038;-73
2023/01/17 04:44:51;;;;;;;1.90;1.48;;;5.70;99.90;;;;;;2032362;29;20031;-72
2023/01/17 04:45:56;;;;;;;2.00;1.40;;;5.70;99.90;;;;;;2044685;29;20043;-72
2023/01/17 04:46:56;;;;;;;2.42;1.50;;;5.70;99.90;;;;;;2045661;29;20399;-72
2023/01/17 04:48:04;;;;;;;2.63;1.50;;;5.70;99.90;;;;;;2045787;29;20039;-74
2023/01/17 04:49:05;;;;;;;2.65;1.40;;;5.70;99.90;;;;;;2044602;28;20061;-73
2023/01/17 04:50:07;;;;;;;2.58;1.48;;;5.70;99.90;;;;;;2037417;29;20102;-73
2023/01/17 04:51:08;;;;;;;3.25;1.50;;;5.70;99.90;;;;;;2028355;29;20028;-73
2023/01/17 04:52:08;;;;;;;4.05;1.60;;;5.70;99.90;;;;;;2037186;29;20582;-73
2023/01/17 04:53:09;;;;;;;1.80;1.30;;;5.70;99.90;;;;;;2045768;29;20083;-73
2023/01/17 04:54:09;;;;;;;2.28;1.52;;;5.70;99.90;;;;;;2045533;29;20122;-73
2023/01/17 04:55:10;;;;;;;2.22;1.40;;;5.70;99.90;;;;;;2045775;29;20031;-73
2023/01/17 04:56:10;;;;;;;2.78;1.40;;;5.70;99.90;;;;;;2044083;29;20783;-73
2023/01/17 04:57:11;;;;;;;3.15;1.60;;;5.60;99.90;;;;;;2045462;29;20043;-73
2023/01/17 04:58:12;;;;;;;3.47;1.40;;;5.60;99.90;;;;;;2045941;29;20035;-73
2023/01/17 04:59:12;;;;;;;1.73;1.30;;;5.60;99.90;;;;;;2037479;29;20063;-73
2023/01/17 05:00:13;;;;;;;1.75;1.50;;;5.70;99.90;;;;;;2037244;29;20657;-73
2023/01/17 05:01:14;;;;;;;1.70;1.50;;;5.70;99.90;;;;;;2049024;28;20077;-73
2023/01/17 05:02:14;;;;;;;2.38;1.50;;;5.70;99.90;;;;;;2046611;28;20417;-73
2023/01/17 05:03:19;;;;;;;1.58;1.40;;;5.70;99.90;;;;;;2046060;29;20622;-73
2023/01/17 05:04:20;;;;;;;1.83;1.45;;;5.70;99.90;;;;;;2048537;28;20133;-74
2023/01/17 05:05:20;;;;;;;3.38;1.55;;;5.70;99.90;;;;;;2044973;29;20501;-73
2023/01/17 05:06:21;;;;;;;2.40;1.35;;;5.70;99.90;;;;;;2043727;28;20482;-73
2023/01/17 05:07:21;;;;;;;2.85;1.40;;;5.70;99.90;;;;;;2045831;29;20497;-72
2023/01/17 05:08:22;;;;;;;2.15;1.45;;;5.70;99.90;;;;;;2045550;28;20074;-72
2023/01/17 05:09:22;;;;;;;2.20;1.40;;;5.60;99.90;;;;;;2036823;29;20024;-73
2023/01/17 05:10:24;;;;;;;2.75;1.50;;;5.70;99.90;;;;;;2036976;29;20023;-74
2023/01/17 05:11:24;;;;;;;2.95;1.35;;;5.60;99.90;;;;;;2043826;29;20119;-75
2023/01/17 05:12:26;;;;;;;3.88;1.27;;;5.70;99.90;;;;;;2045267;28;20058;-74
2023/01/17 05:13:27;;;;;;;1.88;1.50;;;5.60;99.90;;;;;;2046587;29;20078;-75
2023/01/17 05:14:27;;;;;;;1.65;1.50;;;5.60;99.90;;;;;;2047056;29;21955;-73
2023/01/17 05:15:28;;;;;;;2.35;1.42;;;5.60;99.90;;;;;;2047454;29;20106;-74
2023/01/17 05:16:28;;;;;;;2.10;1.60;;;5.70;99.90;;;;;;2044861;28;20051;-74
2023/01/17 05:17:29;;;;;;;1.45;1.33;;;5.70;99.90;;;;;;2047313;29;20588;-74
2023/01/17 05:18:29;;;;;;;1.40;1.30;;;5.60;99.90;;;;;;2046936;29;20751;-74
2023/01/17 05:19:30;;;;;;;2.03;1.40;;;5.70;99.90;;;;;;2047146;29;20031;-74
2023/01/17 05:20:30;;;;;;;3.08;1.60;;;5.70;99.90;;;;;;2046404;29;20043;-74
2023/01/17 05:21:31;;;;;;;1.73;1.50;;;5.70;99.90;;;;;;2053251;28;20090;-74
2023/01/17 05:22:31;;;;;;;1.63;1.42;;;5.70;99.90;;;;;;2047602;28;20031;-73
2023/01/17 05:23:32;;;;;;;2.22;1.65;;;5.70;99.90;;;;;;2047201;29;20045;-75
2023/01/17 05:24:32;;;;;;;2.15;1.60;;;5.60;99.90;;;;;;2038212;29;20042;-74
2023/01/17 05:25:34;;;;;;;3.92;1.70;;;5.60;99.90;;;;;;2038893;29;20098;-74
2023/01/17 05:26:35;;;;;;;2.58;1.80;;;5.70;99.90;;;;;;2046153;29;20034;-72
2023/01/17 05:27:35;;;;;;;2.38;1.52;;;5.70;99.90;;;;;;2046427;29;20512;-73
2023/01/17 05:28:36;;;;;;;3.20;1.42;;;5.70;99.90;;;;;;2047194;29;20039;-73
2023/01/17 05:29:37;;;;;;;2.30;1.50;;;5.70;99.90;;;;;;2047268;29;20035;-73
2023/01/17 05:30:37;;;;;;;1.83;1.45;;;5.70;99.90;;;;;;2045064;29;20083;-73
2023/01/17 05:31:38;;;;;;;2.13;1.40;;;5.60;99.90;;;;;;2038755;29;20063;-74
2023/01/17 05:32:38;;;;;;;3.40;1.60;;;5.60;99.90;;;;;;2038834;29;20070;-74
2023/01/17 05:33:39;;;;;;;1.52;1.42;;;5.70;99.90;;;;;;2047324;29;20043;-73
2023/01/17 05:34:39;;;;;;;1.50;1.40;;;5.60;99.90;;;;;;2046761;29;20039;-74
2023/01/17 05:35:40;;;;;;;1.50;1.40;;;5.60;99.90;;;;;;2046064;28;20046;-73
2023/01/17 05:36:40;;;;;;;2.53;1.60;;;5.60;99.90;;;;;;2047168;29;20090;-74
2023/01/17 05:37:47;;;;;;;1.92;1.48;;;5.60;99.90;;;;;;2046927;29;20114;-74
2023/01/17 05:38:48;;;;;;;1.85;1.48;;;5.60;99.90;;;;;;2047426;29;20047;-74
2023/01/17 05:39:48;;;;;;;3.63;1.73;;;5.60;99.90;;;;;;2046756;29;20046;-74
2023/01/17 05:40:49;;;;;;;1.70;1.50;;;5.60;99.90;;;;;;2047732;28;20034;-74
2023/01/17 05:41:49;;;;;;;4.32;1.55;;;5.70;99.90;;;;;;2047477;28;20027;-75
2023/01/17 05:42:52;;;;;;;2.80;1.60;;;5.60;99.90;;;;;;2038641;29;20062;-74
2023/01/17 05:43:53;;;;;;;1.75;1.45;;;5.70;99.90;;;;;;2045524;29;20114;-74
2023/01/17 05:44:53;;;;;;;2.28;1.60;;;5.60;99.90;;;;;;2043880;29;20023;-74
2023/01/17 05:45:54;;;;;;;2.10;1.55;;;5.60;99.90;;;;;;2046504;28;20706;-75
2023/01/17 05:46:55;;;;;;;2.38;1.40;;;5.60;99.90;;;;;;2047311;29;20062;-74
2023/01/17 05:47:56;;;;;;;2.65;1.50;;;5.60;99.90;;;;;;2046888;29;20106;-74
2023/01/17 05:48:57;;;;;;;2.67;1.40;;;5.60;99.90;;;;;;2047141;29;20371;-74
2023/01/17 05:49:58;;;;;;;3.42;1.60;;;5.60;99.90;;;;;;2047071;29;20019;-73
2023/01/17 05:51:00;;;;;;;2.20;1.75;;;5.60;99.90;;;;;;2045732;29;20743;-73
2023/01/17 05:52:01;;;;;;;1.83;1.65;;;5.60;99.90;;;;;;2047064;28;20677;-73
2023/01/17 05:53:04;;;;;;;2.53;1.70;;;5.60;99.90;;;;;;2046599;29;20027;-77
2023/01/17 05:54:05;;;;;;;2.38;1.60;;;5.50;99.90;;;;;;2046727;29;20034;-72
2023/01/17 05:55:06;;;;;;;2.10;1.30;;;5.50;99.90;;;;;;2046855;29;20395;-73
2023/01/17 05:56:07;;;;;;;2.10;1.50;;;5.60;99.90;;;;;;2045394;29;20043;-74
2023/01/17 05:57:08;;;;;;;1.48;1.35;;;5.60;99.90;;;;;;2044883;29;20027;-73
2023/01/17 05:58:14;;;;;;;1.92;1.50;;;5.60;99.90;;;;;;2044447;29;20027;-73
2023/01/17 05:59:15;;;;;;;2.28;1.30;;;5.60;99.90;;;;;;2046644;28;20190;-72
2023/01/17 06:00:16;;;;;;;2.75;1.60;;;5.60;99.90;;;;;;2046114;29;20631;-75
2023/01/17 06:01:18;;;;;;;2.45;1.40;;;5.60;99.90;;;;;;2037302;29;20107;-74
2023/01/17 06:02:18;;;;;;;1.55;1.45;;;5.60;99.90;;;;;;2036672;28;20039;-73
2023/01/17 06:03:19;;;;;;;2.67;1.52;;;5.60;99.90;;;;;;2045380;28;20451;-74
2023/01/17 06:04:19;;;;;;;1.70;1.38;;;5.60;99.90;;;;;;2038026;29;20038;-74
2023/01/17 06:05:20;;;;;;;1.80;1.50;;;5.60;99.90;;;;;;2037951;29;20519;-74
2023/01/17 06:06:21;;;;;;;2.47;1.33;;;5.60;99.90;;;;;;2046095;29;20046;-74
2023/01/17 06:07:22;;;;;;;2.60;1.58;;;5.60;99.90;;;;;;2046407;29;20043;-74
2023/01/17 06:08:22;;;;;;;2.67;1.50;;;5.50;99.90;;;;;;2044442;28;20031;-74
2023/01/17 06:09:23;;;;;;;3.38;1.70;;;5.50;99.90;;;;;;2046500;28;20082;-73
2023/01/17 06:10:24;;;;;;;1.70;1.40;;;5.50;99.90;;;;;;2046449;29;20122;-73
2023/01/17 06:11:25;;;;;;;1.77;1.52;;;5.50;99.90;;;;;;2046266;29;20063;-73
2023/01/17 06:12:26;;;;;;;1.50;1.40;;;5.50;99.90;;;;;;2045763;29;20107;-74
2023/01/17 06:13:26;;;;;;;1.95;1.50;;;5.50;99.90;;;;;;2044435;28;20042;-75
2023/01/17 06:14:27;;;;;;;1.98;1.60;;;5.50;99.90;;;;;;2046233;29;20027;-74
2023/01/17 06:15:28;;;;;;;2.17;1.50;;;5.50;99.90;;;;;;2045922;29;20038;-75
2023/01/17 06:16:29;;;;;;;1.52;1.40;;;5.50;99.90;;;;;;2029829;29;20068;-74
2023/01/17 06:17:29;;;;;;;3.30;1.65;;;5.50;99.90;;;;;;2036811;29;20111;-75
2023/01/17 06:18:30;;;;;;;1.77;1.60;;;5.40;99.90;;;;;;2035694;29;20587;-75
2023/01/17 06:19:31;;;;;;;2.13;1.48;;;5.40;99.90;;;;;;2029746;29;20028;-75
2023/01/17 06:20:32;;;;;;;2.92;1.58;;;5.40;99.90;;;;;;2037613;29;20059;-76
2023/01/17 06:21:33;;;;;;;4.07;1.65;;;5.50;99.90;;;;;;2045876;29;20054;-75
2023/01/17 06:22:34;;;;;;;2.63;1.60;;;5.50;99.90;;;;;;2046159;29;20412;-73
2023/01/17 06:23:35;;;;;;;2.33;1.60;;;5.50;99.90;;;;;;2044229;28;20164;-74
2023/01/17 06:24:35;;;;;;;2.35;1.80;;;5.40;99.90;;;;;;2037557;29;20031;-74
2023/01/17 06:25:42;;;;;;;3.05;1.52;;;5.40;99.90;;;;;;2036926;29;20637;-73
2023/01/17 06:26:43;;;;;;;4.10;1.60;;;5.40;99.90;;;;;;2045241;29;20042;-74
2023/01/17 06:27:43;;;;;;;2.70;1.60;;;5.40;99.90;;;;;;2044861;29;20049;-73
2023/01/17 06:28:44;;;;;;;2.88;1.63;;;5.40;99.90;;;;;;2044408;29;20144;-74
2023/01/17 06:29:44;;;;;;;3.33;1.50;;;5.30;99.90;;;;;;2045591;29;20118;-74
2023/01/17 06:30:45;;;;;;;3.00;1.63;;;5.30;99.90;;;;;;2037828;29;20038;-74
2023/01/17 06:31:46;;;;;;;4.22;1.70;;;5.30;99.90;;;;;;2037780;29;20086;-73
2023/01/17 06:32:54;;;;;;;4.35;1.60;;;5.30;99.90;;;;;;2046008;29;20042;-74
2023/01/17 06:33:54;;;;;;;3.38;1.90;;;5.30;99.90;;;;;;2045817;29;20023;-73
2023/01/17 06:34:55;;;;;;;4.90;1.60;;;5.30;99.90;;;;;;2046286;29;20504;-75
2023/01/17 06:35:55;;;;;;;2.95;1.90;;;5.30;99.90;;;;;;2045819;29;20031;-73
2023/01/17 06:36:56;;;;;;;1.48;1.38;;;5.30;99.90;;;;;;2046328;29;20439;-73
2023/01/17 06:37:58;;;;;;;9.73;1.60;;;5.30;99.90;;;;;;2044196;29;20581;-72
2023/01/17 06:38:59;;;;;;;5.55;1.88;;;5.30;99.90;;;;;;2046135;29;20039;-73
2023/01/17 06:39:59;;;;;;;2.72;1.60;;;5.20;99.90;;;;;;2045940;29;20039;-72
2023/01/17 06:41:03;;;;;;;2.55;1.52;;;5.20;99.90;;;;;;2046102;29;20284;-73
2023/01/17 06:42:03;;;;;;;5.65;1.83;;;5.20;99.90;;;;;;2045868;29;20450;-74
2023/01/17 06:43:04;;;;;;;3.03;1.88;;;5.20;99.90;;;;;;2045774;28;20047;-78
2023/01/17 06:44:06;;;;;;;4.78;1.67;;;5.20;99.90;;;;;;2040296;29;20087;-75
2023/01/17 06:45:07;;;;;;;2.88;1.88;;;5.20;99.90;;;;;;2032802;29;20418;-79
2023/01/17 06:46:08;;;;;;;4.65;1.85;;;5.20;99.90;;;;;;2045509;29;20116;-78
2023/01/17 06:47:08;;;;;;;1.88;1.60;;;5.20;99.90;;;;;;2046080;29;20044;-77
2023/01/17 06:48:09;;;;;;;2.42;1.65;;;5.20;99.90;;;;;;2044234;29;20482;-77
2023/01/17 06:49:09;;;;;;;1.98;1.50;;;5.20;99.90;;;;;;2037657;29;20554;-77
2023/01/17 06:50:12;;;;;;;3.78;1.65;;;5.20;99.90;;;;;;2029446;29;20032;-71
2023/01/17 06:51:14;;;;;;;1.77;1.60;;;5.20;99.90;;;;;;2037673;29;20184;-74
2023/01/17 06:52:14;;;;;;;2.30;1.70;;;5.20;99.90;;;;;;2045757;29;20045;-78
2023/01/17 06:53:15;;;;;;;3.95;1.80;;;5.20;99.90;;;;;;2044191;29;20054;-71
2023/01/17 06:54:16;;;;;;;2.40;1.60;;;5.20;99.90;;;;;;2045804;29;20494;-69
2023/01/17 06:55:16;;;;;;;2.15;1.60;;;5.10;99.90;;;;;;2045799;29;20080;-67
2023/01/17 06:56:17;;;;;;;3.17;1.58;;;5.10;99.90;;;;;;2045504;29;20388;-68